Time;durP1;ratioP1;P1;durP2;ratioP2;P2;SDS_P1;SDS_P2;PMS_P1;PMS_P2;Temp;Humidity;BMP_temperature;BMP_pressure;BME280_temperature;BME280_humidity;BME280_pressure;Samples;Min_cycle;Max_cycle;Signal;HPM_P1;HPM_P2
2022/07/03 00:00:07;;;;;;;0.50;0.50;;;19.20;99.90;;;;;;5078710;28;20256;-65
2022/07/03 00:02:34;;;;;;;0.60;0.60;;;19.20;99.90;;;;;;5073244;28;20226;-64
2022/07/03 00:05:01;;;;;;;0.50;0.50;;;19.10;99.90;;;;;;5076071;28;20201;-64
2022/07/03 00:07:28;;;;;;;1.27;0.65;;;19.00;99.90;;;;;;5070343;28;20264;-65
2022/07/03 00:09:55;;;;;;;0.50;0.50;;;19.00;99.90;;;;;;5066549;28;20206;-63
2022/07/03 00:12:22;;;;;;;0.60;0.60;;;18.80;99.90;;;;;;5073416;28;20202;-64
2022/07/03 00:14:50;;;;;;;0.45;0.45;;;18.80;99.90;;;;;;5066921;28;20219;-64
2022/07/03 00:17:19;;;;;;;0.60;0.60;;;18.80;99.90;;;;;;5075889;28;20214;-63
2022/07/03 00:19:46;;;;;;;0.50;0.50;;;18.80;99.90;;;;;;5069653;28;20206;-62
2022/07/03 00:22:14;;;;;;;0.60;0.60;;;18.80;99.90;;;;;;5071257;28;20203;-63
2022/07/03 00:24:44;;;;;;;0.82;0.68;;;18.80;99.90;;;;;;5069138;28;20338;-64
2022/07/03 00:27:12;;;;;;;0.52;0.52;;;18.70;99.90;;;;;;5065217;28;20203;-63
2022/07/03 00:29:43;;;;;;;0.50;0.50;;;18.80;99.90;;;;;;5070456;28;20577;-63
2022/07/03 00:32:11;;;;;;;0.88;0.88;;;18.60;99.90;;;;;;5068080;28;20202;-64
2022/07/03 00:34:41;;;;;;;0.75;0.75;;;18.60;99.90;;;;;;5072706;28;20342;-64
2022/07/03 00:37:09;;;;;;;0.60;0.60;;;18.60;99.90;;;;;;5069350;28;20674;-64
2022/07/03 00:39:38;;;;;;;0.60;0.57;;;18.60;99.90;;;;;;5073442;28;20744;-64
2022/07/03 00:42:07;;;;;;;0.55;0.50;;;18.50;99.90;;;;;;5068705;28;20200;-65
2022/07/03 00:44:43;;;;;;;0.50;0.50;;;18.50;99.90;;;;;;5062945;28;20258;-64
2022/07/03 00:47:11;;;;;;;0.40;0.40;;;18.50;99.90;;;;;;5067873;28;20286;-63
2022/07/03 00:49:41;;;;;;;0.60;0.60;;;18.40;99.90;;;;;;5065037;28;20758;-64
2022/07/03 00:52:10;;;;;;;0.57;0.57;;;18.30;99.90;;;;;;5066782;28;20203;-62
2022/07/03 00:54:39;;;;;;;0.60;0.60;;;18.30;99.90;;;;;;5067045;28;20242;-64
2022/07/03 00:57:13;;;;;;;0.30;0.30;;;18.30;99.90;;;;;;5072141;28;20209;-64
2022/07/03 00:59:42;;;;;;;0.50;0.50;;;18.30;99.90;;;;;;5065840;28;20213;-62
2022/07/03 01:02:12;;;;;;;0.40;0.40;;;18.30;99.90;;;;;;5079253;28;20211;-64
2022/07/03 01:04:53;;;;;;;0.50;0.50;;;18.30;99.90;;;;;;5068980;28;20665;-62
2022/07/03 01:07:31;;;;;;;0.73;0.73;;;18.30;99.90;;;;;;5071698;28;20284;-63
2022/07/03 01:10:05;;;;;;;0.68;0.68;;;18.30;99.90;;;;;;5070374;28;20234;-65
2022/07/03 01:12:43;;;;;;;0.73;0.73;;;18.30;99.90;;;;;;5051526;28;20195;-63
2022/07/03 01:15:12;;;;;;;0.60;0.60;;;18.30;99.90;;;;;;5067673;28;20223;-63
2022/07/03 01:17:41;;;;;;;0.75;0.75;;;18.30;99.90;;;;;;5073522;28;20208;-63
2022/07/03 01:20:10;;;;;;;0.60;0.60;;;18.20;99.90;;;;;;5076978;28;20203;-62
2022/07/03 01:22:43;;;;;;;0.50;0.50;;;18.10;99.90;;;;;;5076384;28;20323;-63
2022/07/03 01:25:15;;;;;;;0.73;0.67;;;18.10;99.90;;;;;;5077098;28;20899;-64
2022/07/03 01:27:59;;;;;;;0.40;0.40;;;18.10;99.90;;;;;;5081823;28;20211;-65
2022/07/03 01:30:28;;;;;;;0.50;0.50;;;18.10;99.90;;;;;;5068179;28;20199;-62
2022/07/03 01:32:59;;;;;;;0.57;0.57;;;18.10;99.90;;;;;;5069827;28;20591;-63
2022/07/03 01:35:33;;;;;;;0.47;0.47;;;18.10;99.90;;;;;;5074625;28;20879;-63
2022/07/03 01:38:05;;;;;;;0.60;0.60;;;18.00;99.90;;;;;;5072917;28;20198;-63
2022/07/03 01:40:33;;;;;;;0.88;0.88;;;18.00;99.90;;;;;;5074571;28;20206;-62
2022/07/03 01:43:03;;;;;;;0.83;0.83;;;18.10;99.90;;;;;;5073241;28;20309;-63
2022/07/03 01:45:32;;;;;;;0.57;0.57;;;18.10;99.90;;;;;;5075541;28;20200;-63
2022/07/03 01:47:59;;;;;;;0.50;0.50;;;18.00;99.90;;;;;;5077222;28;20207;-63
2022/07/03 01:50:29;;;;;;;0.60;0.60;;;18.00;99.90;;;;;;5070015;28;20203;-62
2022/07/03 01:53:00;;;;;;;0.50;0.50;;;18.10;99.90;;;;;;5078020;28;20300;-64
2022/07/03 01:55:30;;;;;;;0.50;0.50;;;18.00;99.90;;;;;;5068971;28;20219;-62
2022/07/03 01:57:58;;;;;;;1.13;0.55;;;18.00;99.90;;;;;;5075757;28;20665;-65
2022/07/03 02:00:28;;;;;;;0.60;0.60;;;18.00;99.90;;;;;;5076961;28;20584;-64
2022/07/03 02:02:59;;;;;;;0.40;0.40;;;17.90;99.90;;;;;;5068951;28;20870;-64
2022/07/03 02:05:39;;;;;;;0.50;0.50;;;17.90;99.90;;;;;;5074460;28;20286;-65
2022/07/03 02:08:23;;;;;;;0.57;0.57;;;17.80;99.90;;;;;;5080909;28;20222;-65
2022/07/03 02:11:02;;;;;;;0.50;0.50;;;17.80;99.90;;;;;;5075432;28;20210;-65
2022/07/03 02:13:31;;;;;;;1.02;0.77;;;17.80;99.90;;;;;;5071089;28;20314;-65
2022/07/03 02:16:00;;;;;;;0.50;0.50;;;17.80;99.90;;;;;;5083327;28;20302;-65
2022/07/03 02:18:29;;;;;;;0.30;0.30;;;17.70;99.90;;;;;;5074331;28;20310;-67
2022/07/03 02:21:04;;;;;;;1.03;0.50;;;17.70;99.90;;;;;;5071802;28;20626;-63
2022/07/03 02:23:33;;;;;;;0.60;0.60;;;17.70;99.90;;;;;;5070783;28;20223;-66
2022/07/03 02:26:04;;;;;;;0.47;0.47;;;17.60;99.90;;;;;;5069683;28;20209;-66
2022/07/03 02:28:39;;;;;;;0.40;0.40;;;17.60;99.90;;;;;;5071586;28;20199;-62
2022/07/03 02:31:10;;;;;;;0.65;0.60;;;17.60;99.90;;;;;;5068640;28;20294;-63
2022/07/03 02:33:41;;;;;;;0.60;0.60;;;17.60;99.90;;;;;;5062315;28;20223;-63
2022/07/03 02:36:12;;;;;;;0.40;0.40;;;17.50;99.90;;;;;;5070001;28;20229;-63
2022/07/03 02:38:43;;;;;;;1.05;0.52;;;17.40;99.90;;;;;;5066124;28;20225;-64
2022/07/03 02:41:15;;;;;;;0.50;0.50;;;17.40;99.90;;;;;;5063493;28;20206;-64
2022/07/03 02:43:50;;;;;;;0.80;0.80;;;17.50;99.90;;;;;;5071530;28;20232;-62
2022/07/03 02:49:19;;;;;;;0.65;0.65;;;17.40;99.90;;;;;;5074032;28;20210;-64
2022/07/03 02:51:53;;;;;;;0.70;0.70;;;17.40;99.90;;;;;;5075463;28;20234;-64
2022/07/03 02:54:20;;;;;;;0.55;0.55;;;17.40;99.90;;;;;;5068883;28;20578;-64
2022/07/03 02:57:00;;;;;;;0.50;0.50;;;17.40;99.90;;;;;;5070358;28;20194;-64
2022/07/03 02:59:38;;;;;;;0.55;0.55;;;17.30;99.90;;;;;;5069215;28;20582;-64
2022/07/03 03:02:14;;;;;;;0.50;0.50;;;17.40;99.90;;;;;;5066083;28;20231;-63
2022/07/03 03:04:45;;;;;;;0.80;0.80;;;17.40;99.90;;;;;;5072770;28;20668;-64
2022/07/03 03:07:15;;;;;;;0.55;0.55;;;17.40;99.90;;;;;;5071914;28;20222;-64
2022/07/03 03:09:43;;;;;;;0.68;0.68;;;17.40;99.90;;;;;;5073325;28;20234;-64
2022/07/03 03:12:12;;;;;;;0.63;0.63;;;17.30;99.90;;;;;;5077741;28;20634;-64
2022/07/03 03:14:41;;;;;;;0.50;0.50;;;17.30;99.90;;;;;;5065477;28;20231;-65
2022/07/03 03:17:14;;;;;;;0.50;0.50;;;17.30;99.90;;;;;;5056399;28;20385;-64
2022/07/03 03:19:45;;;;;;;0.60;0.60;;;17.30;99.90;;;;;;5071501;28;20216;-64
2022/07/03 03:22:34;;;;;;;0.40;0.40;;;17.30;99.90;;;;;;5072331;28;20207;-63
2022/07/03 03:25:02;;;;;;;0.60;0.60;;;17.20;99.90;;;;;;5069524;28;20208;-65
2022/07/03 03:27:30;;;;;;;0.57;0.57;;;17.20;99.90;;;;;;5069868;28;20672;-64
2022/07/03 03:29:57;;;;;;;0.57;0.57;;;17.10;99.90;;;;;;5077158;28;20212;-64
2022/07/03 03:32:27;;;;;;;0.70;0.70;;;17.10;99.90;;;;;;5077587;28;20283;-65
2022/07/03 03:34:53;;;;;;;0.53;0.53;;;17.10;99.90;;;;;;5068689;28;20813;-65
2022/07/03 03:37:20;;;;;;;0.60;0.60;;;17.10;99.90;;;;;;5078416;28;20241;-63
2022/07/03 03:39:48;;;;;;;0.50;0.50;;;17.00;99.90;;;;;;5074889;28;20290;-64
2022/07/03 03:42:14;;;;;;;0.60;0.60;;;17.00;99.90;;;;;;5080590;28;20256;-64
2022/07/03 03:44:41;;;;;;;0.60;0.60;;;17.10;99.90;;;;;;5076400;28;20329;-63
2022/07/03 03:47:08;;;;;;;0.50;0.50;;;17.10;99.90;;;;;;5081638;28;20285;-63
2022/07/03 03:49:37;;;;;;;0.60;0.60;;;17.10;99.90;;;;;;5070465;28;20207;-64
2022/07/03 03:52:05;;;;;;;0.60;0.60;;;17.20;99.90;;;;;;5071855;28;20223;-64
2022/07/03 03:54:31;;;;;;;0.60;0.60;;;17.20;99.90;;;;;;5069581;28;20306;-64
2022/07/03 03:57:14;;;;;;;0.47;0.47;;;17.20;99.90;;;;;;5072823;28;20660;-63
2022/07/03 03:59:41;;;;;;;0.68;0.68;;;17.20;99.90;;;;;;5065473;28;20203;-64
2022/07/03 04:02:08;;;;;;;0.60;0.60;;;17.30;99.90;;;;;;5071040;28;20286;-62
2022/07/03 04:04:36;;;;;;;0.50;0.50;;;17.30;99.90;;;;;;5074618;28;20317;-63
2022/07/03 04:07:04;;;;;;;0.60;0.60;;;17.30;99.90;;;;;;5071414;28;20200;-62
2022/07/03 04:09:31;;;;;;;0.70;0.70;;;17.30;99.90;;;;;;5078328;28;20584;-63
2022/07/03 04:11:58;;;;;;;0.57;0.57;;;17.30;99.90;;;;;;5077185;28;20203;-62
2022/07/03 04:14:25;;;;;;;0.55;0.55;;;17.30;99.90;;;;;;5071711;28;20636;-63
2022/07/03 04:16:52;;;;;;;0.50;0.50;;;17.30;99.90;;;;;;5065782;28;20218;-63
2022/07/03 04:19:19;;;;;;;0.93;0.70;;;17.30;99.90;;;;;;5062258;28;20199;-65
2022/07/03 04:21:47;;;;;;;0.40;0.40;;;17.30;99.90;;;;;;5066300;28;20916;-65
2022/07/03 04:24:14;;;;;;;0.50;0.50;;;17.30;99.90;;;;;;5072391;28;20238;-65
2022/07/03 04:26:40;;;;;;;0.68;0.68;;;17.30;99.90;;;;;;5065767;28;20245;-65
2022/07/03 04:29:07;;;;;;;0.50;0.50;;;17.30;99.90;;;;;;5070731;28;20760;-65
2022/07/03 04:31:34;;;;;;;0.50;0.50;;;17.50;99.90;;;;;;5078587;28;20565;-65
2022/07/03 04:34:01;;;;;;;1.50;0.80;;;17.40;99.90;;;;;;5073925;28;20225;-65
2022/07/03 04:36:28;;;;;;;0.67;0.67;;;17.30;99.90;;;;;;5073595;28;20253;-65
2022/07/03 04:38:56;;;;;;;0.50;0.50;;;17.40;99.90;;;;;;5082193;28;20199;-65
2022/07/03 04:41:23;;;;;;;0.75;0.75;;;17.40;99.90;;;;;;5080626;28;20213;-64
2022/07/03 04:43:50;;;;;;;0.57;0.57;;;17.30;99.90;;;;;;5076953;28;20231;-70
2022/07/03 04:46:17;;;;;;;0.40;0.40;;;17.30;99.90;;;;;;5081132;28;20301;-65
2022/07/03 04:48:45;;;;;;;0.30;0.30;;;17.30;99.90;;;;;;5081068;28;20310;-64
2022/07/03 04:51:12;;;;;;;2.53;0.60;;;17.40;99.90;;;;;;5078399;28;20235;-65
2022/07/03 04:53:39;;;;;;;0.57;0.57;;;17.50;99.90;;;;;;5075808;28;20310;-63
2022/07/03 04:56:07;;;;;;;0.68;0.68;;;17.60;99.90;;;;;;5073735;28;20223;-63
2022/07/03 04:58:34;;;;;;;0.57;0.57;;;17.60;99.90;;;;;;5075563;28;20221;-63
2022/07/03 05:01:01;;;;;;;0.60;0.60;;;17.70;99.90;;;;;;5072156;28;20297;-69
2022/07/03 05:03:28;;;;;;;0.60;0.60;;;17.70;99.90;;;;;;5070115;28;20227;-63
2022/07/03 05:05:55;;;;;;;1.27;0.80;;;17.80;99.90;;;;;;5078933;28;20282;-64
2022/07/03 05:08:22;;;;;;;0.53;0.53;;;17.90;99.90;;;;;;5056753;28;20209;-63
2022/07/03 05:10:48;;;;;;;0.60;0.60;;;18.00;99.90;;;;;;5071027;28;20292;-65
2022/07/03 05:13:17;;;;;;;0.70;0.70;;;18.10;99.90;;;;;;5074303;28;20227;-65
2022/07/03 05:15:43;;;;;;;0.50;0.50;;;18.30;99.90;;;;;;5068047;28;20255;-65
2022/07/03 05:18:10;;;;;;;0.75;0.75;;;18.60;99.90;;;;;;5069254;28;20282;-64
2022/07/03 05:20:37;;;;;;;0.50;0.50;;;18.80;99.90;;;;;;5073042;28;20212;-65
2022/07/03 05:23:04;;;;;;;0.60;0.60;;;19.00;99.90;;;;;;5076635;28;20313;-66
2022/07/03 05:25:32;;;;;;;0.70;0.70;;;19.20;99.90;;;;;;5078505;28;20230;-65
2022/07/03 05:27:59;;;;;;;0.60;0.60;;;19.40;99.90;;;;;;5080684;28;20202;-66
2022/07/03 05:30:28;;;;;;;1.02;0.60;;;19.50;99.90;;;;;;5079153;28;20314;-64
2022/07/03 05:32:55;;;;;;;0.52;0.52;;;19.70;99.90;;;;;;5080174;28;20223;-63
2022/07/03 05:35:22;;;;;;;0.50;0.50;;;20.00;99.90;;;;;;5078163;28;20229;-62
2022/07/03 05:37:49;;;;;;;0.60;0.60;;;20.10;99.90;;;;;;5074710;28;20428;-64
2022/07/03 05:40:16;;;;;;;0.57;0.57;;;20.20;99.90;;;;;;5073279;28;20626;-64
2022/07/03 05:42:43;;;;;;;0.50;0.50;;;20.40;99.90;;;;;;5072604;28;20227;-63
2022/07/03 05:45:11;;;;;;;0.50;0.50;;;20.50;99.90;;;;;;5075914;28;20286;-65
2022/07/03 05:47:39;;;;;;;1.13;0.50;;;20.70;99.90;;;;;;5075669;28;20211;-66
2022/07/03 05:50:07;;;;;;;0.60;0.60;;;20.80;99.90;;;;;;5078705;28;20223;-65
2022/07/03 05:52:34;;;;;;;0.55;0.55;;;21.00;99.90;;;;;;5078609;28;20290;-63
2022/07/03 05:55:01;;;;;;;0.60;0.60;;;21.20;99.90;;;;;;5075768;28;20238;-66
2022/07/03 05:57:27;;;;;;;0.57;0.57;;;21.30;99.90;;;;;;5067494;28;20322;-64
2022/07/03 05:59:54;;;;;;;0.60;0.60;;;21.50;99.90;;;;;;5070864;28;20278;-63
2022/07/03 06:02:21;;;;;;;0.50;0.50;;;21.60;99.90;;;;;;5087245;28;20207;-63
2022/07/03 06:04:49;;;;;;;1.27;0.73;;;21.80;99.90;;;;;;5087902;28;20583;-63
2022/07/03 06:07:16;;;;;;;0.50;0.50;;;22.00;99.90;;;;;;5084261;28;20750;-65
2022/07/03 06:09:43;;;;;;;0.40;0.40;;;22.00;99.90;;;;;;5084159;28;20222;-62
2022/07/03 06:12:11;;;;;;;0.50;0.50;;;22.20;99.90;;;;;;5074551;28;20207;-65
2022/07/03 06:14:38;;;;;;;0.60;0.60;;;22.30;99.90;;;;;;5073509;28;20291;-64
2022/07/03 06:17:05;;;;;;;0.63;0.63;;;22.40;99.90;;;;;;5073683;28;20314;-65
2022/07/03 06:19:32;;;;;;;0.50;0.50;;;22.50;99.90;;;;;;5082175;28;20230;-65
2022/07/03 06:22:00;;;;;;;0.60;0.60;;;22.60;99.90;;;;;;5069131;28;20222;-66
2022/07/03 06:24:27;;;;;;;0.70;0.60;;;22.70;99.90;;;;;;5071416;28;20230;-66
2022/07/03 06:26:54;;;;;;;0.60;0.60;;;22.70;99.90;;;;;;5076694;28;20226;-63
2022/07/03 06:29:21;;;;;;;0.50;0.50;;;22.80;99.90;;;;;;5078095;28;20762;-65
2022/07/03 06:31:48;;;;;;;0.40;0.40;;;23.00;99.90;;;;;;5072119;28;20345;-64
2022/07/03 06:34:15;;;;;;;0.60;0.50;;;23.10;99.90;;;;;;5077299;28;20232;-65
2022/07/03 06:36:41;;;;;;;0.50;0.50;;;23.20;99.90;;;;;;5073238;28;20615;-65
2022/07/03 06:39:10;;;;;;;0.68;0.68;;;23.30;99.90;;;;;;5072848;28;20688;-65
2022/07/03 06:41:36;;;;;;;0.60;0.60;;;23.40;99.90;;;;;;5076442;28;20291;-64
2022/07/03 06:44:04;;;;;;;0.47;0.47;;;23.50;99.90;;;;;;5077595;28;20729;-65
2022/07/03 06:46:30;;;;;;;0.52;0.52;;;23.60;99.90;;;;;;5071001;28;20219;-67
2022/07/03 06:48:57;;;;;;;0.60;0.60;;;23.80;99.90;;;;;;5075347;28;20207;-64
2022/07/03 06:51:24;;;;;;;0.45;0.45;;;23.90;99.90;;;;;;5079318;28;20293;-64
2022/07/03 06:53:51;;;;;;;0.50;0.50;;;24.10;99.90;;;;;;5075634;28;20227;-66
2022/07/03 06:56:19;;;;;;;0.32;0.32;;;24.20;99.90;;;;;;5080033;28;20211;-66
2022/07/03 06:58:46;;;;;;;0.47;0.47;;;24.30;99.90;;;;;;5071572;28;20300;-65
2022/07/03 07:01:13;;;;;;;0.32;0.32;;;24.50;99.90;;;;;;5067045;28;20204;-65
2022/07/03 07:03:39;;;;;;;0.60;0.60;;;24.60;99.90;;;;;;5074928;28;20219;-64
2022/07/03 07:06:06;;;;;;;0.40;0.40;;;24.80;99.90;;;;;;5083669;28;20281;-64
2022/07/03 07:08:33;;;;;;;1.08;0.55;;;24.90;99.90;;;;;;5074765;28;20204;-63
2022/07/03 07:11:00;;;;;;;0.60;0.60;;;24.90;99.90;;;;;;5068997;28;20199;-63
2022/07/03 07:13:29;;;;;;;0.50;0.50;;;25.00;99.90;;;;;;5073400;28;20225;-64
2022/07/03 07:15:56;;;;;;;0.50;0.50;;;25.10;99.90;;;;;;5074399;28;20221;-66
2022/07/03 07:18:23;;;;;;;0.60;0.60;;;25.20;99.90;;;;;;5078683;28;20209;-65
2022/07/03 07:20:50;;;;;;;0.50;0.50;;;25.30;99.90;;;;;;5073164;28;20203;-66
2022/07/03 07:23:17;;;;;;;0.40;0.40;;;25.40;99.90;;;;;;5082382;28;20257;-66
2022/07/03 07:25:43;;;;;;;1.08;0.60;;;25.50;99.90;;;;;;5076453;28;20561;-66
2022/07/03 07:28:10;;;;;;;0.45;0.45;;;25.60;99.90;;;;;;5077288;28;20732;-66
2022/07/03 07:30:39;;;;;;;0.40;0.40;;;25.60;99.90;;;;;;5076394;28;20577;-65
2022/07/03 07:33:06;;;;;;;0.40;0.40;;;25.60;99.90;;;;;;5069512;28;20281;-64
2022/07/03 07:35:33;;;;;;;0.30;0.30;;;25.70;99.90;;;;;;5071609;28;20199;-66
2022/07/03 07:38:00;;;;;;;0.50;0.50;;;25.90;99.90;;;;;;5071286;28;20290;-66
2022/07/03 07:40:27;;;;;;;0.50;0.50;;;26.10;99.90;;;;;;5076744;28;20538;-68
2022/07/03 07:42:55;;;;;;;0.30;0.30;;;26.20;99.90;;;;;;5078402;28;20223;-67
2022/07/03 07:45:22;;;;;;;0.95;0.50;;;26.30;99.90;;;;;;5092366;28;20211;-67
2022/07/03 07:47:50;;;;;;;0.55;0.55;;;26.40;99.90;;;;;;5070052;28;20207;-68
2022/07/03 07:50:17;;;;;;;0.55;0.55;;;26.60;99.90;;;;;;5071678;28;20297;-66
2022/07/03 07:52:44;;;;;;;0.82;0.50;;;26.60;99.90;;;;;;5071929;28;20227;-67
2022/07/03 07:55:10;;;;;;;0.38;0.38;;;26.80;99.90;;;;;;5075850;28;20677;-66
2022/07/03 07:57:38;;;;;;;0.40;0.40;;;26.90;99.90;;;;;;5073153;28;20229;-66
2022/07/03 08:00:07;;;;;;;0.45;0.45;;;27.00;99.90;;;;;;5069951;28;20217;-68
2022/07/03 08:05:38;;;;;;;0.40;0.40;;;27.30;99.90;;;;;;5079479;28;20316;-65
2022/07/03 08:08:10;;;;;;;0.45;0.45;;;27.40;99.90;;;;;;5078423;28;20226;-66
2022/07/03 08:10:40;;;;;;;0.55;0.55;;;27.40;99.90;;;;;;5074300;28;20584;-67
2022/07/03 08:13:08;;;;;;;0.40;0.40;;;27.40;99.90;;;;;;5073081;28;20631;-68
2022/07/03 08:15:35;;;;;;;0.60;0.60;;;27.50;99.90;;;;;;5074082;28;20298;-67
2022/07/03 08:18:03;;;;;;;0.50;0.50;;;27.60;99.90;;;;;;5074636;28;20204;-67
2022/07/03 08:20:31;;;;;;;0.60;0.60;;;27.60;99.90;;;;;;5074798;28;20230;-66
2022/07/03 08:22:58;;;;;;;0.30;0.30;;;27.70;99.90;;;;;;5072312;28;20321;-68
2022/07/03 08:25:25;;;;;;;0.30;0.30;;;27.80;99.90;;;;;;5071761;28;20593;-66
2022/07/03 08:27:52;;;;;;;0.45;0.45;;;27.90;99.90;;;;;;5064939;28;20196;-68
2022/07/03 08:30:19;;;;;;;0.52;0.52;;;27.90;99.90;;;;;;5070768;28;20293;-66
2022/07/03 08:32:47;;;;;;;0.60;0.50;;;28.00;99.90;;;;;;5076717;28;20700;-67
2022/07/03 08:35:14;;;;;;;0.50;0.50;;;28.00;99.90;;;;;;5075664;28;20302;-65
2022/07/03 08:37:43;;;;;;;0.77;0.75;;;28.10;99.90;;;;;;5075114;28;20222;-68
2022/07/03 08:40:11;;;;;;;0.30;0.30;;;28.10;99.90;;;;;;5075287;28;20242;-67
2022/07/03 08:42:41;;;;;;;0.40;0.40;;;28.20;99.90;;;;;;5073383;28;20246;-68
2022/07/03 08:45:13;;;;;;;0.35;0.35;;;28.30;99.90;;;;;;5074818;28;20207;-67
2022/07/03 08:47:42;;;;;;;0.50;0.50;;;28.30;99.90;;;;;;5065917;28;20681;-66
2022/07/03 08:50:10;;;;;;;0.30;0.30;;;28.40;99.90;;;;;;5067641;28;20282;-67
2022/07/03 08:52:37;;;;;;;0.28;0.28;;;28.50;99.90;;;;;;5070299;28;20713;-66
2022/07/03 08:55:07;;;;;;;0.47;0.47;;;28.50;99.90;;;;;;5070333;28;20260;-66
2022/07/03 08:57:35;;;;;;;0.60;0.60;;;28.40;99.90;;;;;;5070684;28;20243;-65
2022/07/03 09:00:04;;;;;;;0.45;0.40;;;28.40;99.90;;;;;;5070614;28;20211;-66
2022/07/03 09:02:32;;;;;;;0.50;0.50;;;28.40;99.90;;;;;;5071259;28;20247;-66
2022/07/03 09:05:01;;;;;;;0.40;0.40;;;28.40;99.90;;;;;;5078240;28;20245;-66
2022/07/03 09:07:32;;;;;;;0.40;0.40;;;28.40;99.90;;;;;;5080315;28;20226;-67
2022/07/03 09:10:00;;;;;;;1.67;0.50;;;28.40;99.90;;;;;;5076324;28;20263;-67
2022/07/03 09:12:31;;;;;;;0.60;0.60;;;28.50;99.90;;;;;;5072149;28;20225;-68
2022/07/03 09:14:58;;;;;;;0.47;0.47;;;28.40;99.90;;;;;;5068908;28;20692;-65
2022/07/03 09:17:25;;;;;;;0.40;0.40;;;28.30;99.90;;;;;;5066358;28;20219;-67
2022/07/03 09:19:52;;;;;;;1.85;0.47;;;28.30;99.90;;;;;;5072617;28;20198;-66
2022/07/03 09:22:24;;;;;;;0.50;0.50;;;28.40;99.90;;;;;;5067436;28;20272;-67
2022/07/03 09:24:53;;;;;;;0.40;0.40;;;28.50;99.90;;;;;;5071892;28;20607;-67
2022/07/03 09:27:21;;;;;;;0.40;0.40;;;28.40;99.90;;;;;;5070822;28;20235;-69
2022/07/03 09:29:59;;;;;;;0.38;0.38;;;28.40;99.90;;;;;;5076521;28;20229;-65
2022/07/03 09:32:31;;;;;;;0.50;0.50;;;28.50;99.90;;;;;;5073203;28;20207;-67
2022/07/03 09:35:17;;;;;;;0.35;0.35;;;28.60;99.90;;;;;;5072777;28;20234;-66
2022/07/03 09:37:49;;;;;;;0.40;0.40;;;28.70;99.90;;;;;;5075501;28;20221;-67
2022/07/03 09:40:17;;;;;;;0.50;0.50;;;28.80;99.90;;;;;;5073982;28;20203;-68
2022/07/03 09:43:01;;;;;;;0.73;0.73;;;28.90;99.90;;;;;;5072280;28;20230;-67
2022/07/03 09:45:49;;;;;;;0.60;0.60;;;29.00;99.90;;;;;;5073793;28;20295;-67
2022/07/03 09:48:28;;;;;;;0.50;0.50;;;28.80;99.90;;;;;;5069182;28;20742;-68
2022/07/03 09:51:16;;;;;;;0.47;0.40;;;28.90;99.90;;;;;;5074452;28;20201;-66
2022/07/03 09:53:51;;;;;;;1.00;0.57;;;28.70;99.90;;;;;;5070692;28;20231;-67
2022/07/03 09:56:19;;;;;;;0.30;0.30;;;28.80;99.90;;;;;;5072690;28;20686;-68
2022/07/03 09:59:17;;;;;;;0.82;0.50;;;28.80;99.90;;;;;;5075749;28;20719;-67
2022/07/03 10:01:47;;;;;;;1.20;0.35;;;29.00;99.90;;;;;;4990277;28;21087;-67
2022/07/03 10:04:16;;;;;;;0.45;0.45;;;29.20;99.90;;;;;;5058207;28;20386;-66
2022/07/03 10:06:51;;;;;;;0.32;0.32;;;29.30;99.90;;;;;;5076233;28;20208;-68
2022/07/03 10:09:19;;;;;;;1.65;0.40;;;29.20;99.90;;;;;;5067100;28;20198;-67
2022/07/03 10:11:46;;;;;;;0.75;0.40;;;29.30;99.90;;;;;;5079882;28;20217;-67
2022/07/03 10:14:14;;;;;;;0.50;0.50;;;29.30;99.90;;;;;;5095257;28;21753;-66
2022/07/03 10:16:42;;;;;;;0.40;0.40;;;29.30;99.90;;;;;;5084466;28;20227;-68
2022/07/03 10:19:15;;;;;;;0.40;0.40;;;29.20;99.90;;;;;;5085277;28;20291;-65
2022/07/03 10:21:44;;;;;;;0.50;0.50;;;29.30;99.90;;;;;;5076577;28;20210;-67
2022/07/03 10:24:13;;;;;;;0.98;0.73;;;29.50;99.90;;;;;;5072629;28;20354;-67
2022/07/03 10:26:42;;;;;;;0.38;0.38;;;29.50;99.90;;;;;;5073798;28;20695;-66
2022/07/03 10:29:11;;;;;;;0.40;0.40;;;29.40;99.90;;;;;;5075204;28;20199;-66
2022/07/03 10:31:39;;;;;;;0.70;0.70;;;29.60;99.90;;;;;;5071895;28;20206;-68
2022/07/03 10:34:06;;;;;;;0.52;0.52;;;29.70;99.90;;;;;;5072721;28;20223;-68
2022/07/03 10:36:37;;;;;;;0.40;0.40;;;29.80;99.90;;;;;;5075849;28;20209;-67
2022/07/03 10:39:06;;;;;;;0.40;0.40;;;29.70;99.90;;;;;;5065495;28;20223;-67
2022/07/03 10:47:27;;;;;;;0.57;0.40;;;29.70;99.90;;;;;;5073059;28;20201;-66
2022/07/03 10:50:02;;;;;;;0.65;0.65;;;29.70;99.90;;;;;;5069962;28;20670;-68
2022/07/03 10:52:31;;;;;;;0.57;0.50;;;29.70;99.90;;;;;;5070991;28;20198;-69
2022/07/03 10:54:59;;;;;;;0.50;0.50;;;29.70;99.90;;;;;;5071236;28;20253;-69
2022/07/03 10:57:25;;;;;;;0.28;0.28;;;29.80;99.90;;;;;;5066526;28;20223;-66
2022/07/03 11:00:09;;;;;;;1.58;0.50;;;29.80;99.90;;;;;;5065649;28;20207;-67
2022/07/03 11:02:40;;;;;;;0.30;0.30;;;29.90;99.90;;;;;;5068134;28;20238;-67
2022/07/03 11:05:18;;;;;;;0.90;0.90;;;30.00;99.90;;;;;;5066225;28;21079;-66
2022/07/03 11:08:15;;;;;;;0.60;0.60;;;29.90;99.90;;;;;;5068221;28;20942;-65
2022/07/03 11:10:43;;;;;;;0.30;0.30;;;29.80;99.90;;;;;;5073614;28;20239;-67
2022/07/03 11:13:23;;;;;;;0.40;0.40;;;29.50;99.90;;;;;;5070859;28;20238;-68
2022/07/03 11:15:52;;;;;;;0.30;0.30;;;29.60;99.90;;;;;;5080162;28;20282;-66
2022/07/03 11:18:28;;;;;;;0.45;0.40;;;29.90;99.90;;;;;;5074664;28;20218;-66
2022/07/03 11:21:27;;;;;;;0.50;0.50;;;30.10;99.90;;;;;;5069759;28;20725;-67
2022/07/03 11:24:27;;;;;;;0.30;0.30;;;30.10;99.90;;;;;;5069373;28;20792;-67
2022/07/03 11:27:23;;;;;;;0.50;0.50;;;30.30;99.90;;;;;;5060937;28;20200;-67
2022/07/03 11:29:53;;;;;;;0.40;0.40;;;30.30;99.90;;;;;;5064340;28;20202;-66
2022/07/03 11:32:52;;;;;;;0.45;0.45;;;30.20;99.90;;;;;;5069002;28;20202;-68
2022/07/03 11:35:47;;;;;;;0.40;0.40;;;30.30;99.90;;;;;;5075750;28;20211;-68
2022/07/03 11:38:20;;;;;;;0.47;0.40;;;30.20;99.90;;;;;;5076773;28;20284;-67
2022/07/03 11:40:52;;;;;;;0.43;0.43;;;30.10;99.90;;;;;;5072967;28;20380;-66
2022/07/03 11:43:19;;;;;;;0.50;0.50;;;29.90;99.90;;;;;;5067359;28;20227;-66
2022/07/03 11:45:47;;;;;;;0.30;0.30;;;30.00;99.90;;;;;;5078363;28;20230;-68
2022/07/03 11:48:16;;;;;;;0.32;0.30;;;30.10;99.90;;;;;;5077098;28;20231;-67
2022/07/03 11:50:46;;;;;;;0.30;0.30;;;30.30;99.90;;;;;;5072306;28;20583;-66
2022/07/03 11:53:24;;;;;;;0.38;0.38;;;30.60;99.90;;;;;;5069201;28;20222;-67
2022/07/03 11:55:54;;;;;;;0.40;0.40;;;30.70;99.20;;;;;;5071669;28;20203;-66
2022/07/03 11:58:22;;;;;;;0.60;0.60;;;30.80;99.90;;;;;;5067073;28;20298;-66
2022/07/03 12:00:50;;;;;;;0.50;0.50;;;30.90;99.40;;;;;;5072215;28;20219;-66
2022/07/03 12:03:22;;;;;;;0.55;0.40;;;30.90;99.00;;;;;;5074347;28;20234;-67
2022/07/03 12:05:53;;;;;;;0.30;0.30;;;31.00;98.70;;;;;;5072182;28;20315;-66
2022/07/03 12:08:28;;;;;;;0.65;0.65;;;31.00;99.10;;;;;;5076541;28;20757;-65
2022/07/03 12:11:09;;;;;;;0.45;0.40;;;30.90;98.40;;;;;;5074998;28;20198;-65
2022/07/03 12:13:37;;;;;;;0.38;0.38;;;30.80;98.10;;;;;;5071113;28;20313;-68
2022/07/03 12:16:06;;;;;;;1.10;0.43;;;30.70;99.10;;;;;;5073995;28;20231;-66
2022/07/03 12:18:50;;;;;;;0.50;0.50;;;30.90;98.90;;;;;;5078860;28;20754;-67
2022/07/03 12:21:18;;;;;;;2.40;0.43;;;31.10;98.20;;;;;;5084678;28;20279;-67
2022/07/03 12:23:47;;;;;;;0.30;0.30;;;31.30;99.40;;;;;;5088198;28;20241;-67
2022/07/03 12:26:28;;;;;;;0.40;0.40;;;31.40;98.70;;;;;;5079617;28;20822;-68
2022/07/03 12:28:55;;;;;;;0.50;0.50;;;31.40;99.00;;;;;;5075220;28;20203;-67
2022/07/03 12:31:23;;;;;;;0.52;0.50;;;31.30;98.50;;;;;;5071683;28;20228;-65
2022/07/03 12:33:50;;;;;;;0.60;0.60;;;31.40;98.70;;;;;;5074250;28;20230;-66
2022/07/03 12:36:17;;;;;;;0.60;0.60;;;31.40;98.70;;;;;;5072167;28;20282;-66
2022/07/03 12:38:48;;;;;;;0.50;0.50;;;31.30;97.90;;;;;;5068543;28;20231;-67
2022/07/03 12:41:17;;;;;;;0.60;0.60;;;31.20;97.40;;;;;;5069886;28;20210;-67
2022/07/03 12:43:47;;;;;;;0.50;0.50;;;31.20;97.70;;;;;;5068616;28;20223;-65
2022/07/03 12:46:22;;;;;;;0.30;0.30;;;31.20;98.40;;;;;;5078217;28;20238;-66
2022/07/03 12:48:51;;;;;;;0.68;0.68;;;31.20;99.20;;;;;;5074455;28;20854;-65
2022/07/03 12:51:37;;;;;;;0.50;0.50;;;31.50;99.10;;;;;;5074260;28;20230;-65
2022/07/03 12:54:04;;;;;;;0.30;0.30;;;31.70;99.20;;;;;;5080637;28;20843;-66
2022/07/03 12:56:32;;;;;;;0.70;0.70;;;31.80;99.00;;;;;;5078552;28;20199;-67
2022/07/03 12:59:17;;;;;;;0.50;0.50;;;31.70;98.40;;;;;;5075534;28;20222;-65
2022/07/03 13:01:45;;;;;;;0.57;0.57;;;31.80;98.80;;;;;;5077550;28;21433;-65
2022/07/03 13:04:15;;;;;;;0.45;0.45;;;31.80;98.70;;;;;;5069776;28;20908;-66
2022/07/03 13:06:45;;;;;;;0.50;0.50;;;31.80;98.00;;;;;;5074767;28;20211;-66
2022/07/03 13:09:12;;;;;;;0.30;0.30;;;31.90;98.60;;;;;;5072792;28;20207;-66
2022/07/03 13:11:42;;;;;;;0.55;0.55;;;32.10;98.90;;;;;;5071052;28;20724;-66
2022/07/03 13:14:11;;;;;;;0.75;0.75;;;32.00;98.70;;;;;;5071317;28;20227;-68